sensor_id;sensor_type;location;lat;lon;timestamp;P1;durP1;ratioP1;P2;durP2;ratioP2
25687;SDS011;17407;51.120;3.702;2023-04-19T00:59:16;35.13;;;24.73;;
25687;SDS011;17407;51.120;3.702;2023-04-19T04:58:24;35.83;;;26.30;;
25687;SDS011;17407;51.120;3.702;2023-04-19T05:01:48;38.22;;;26.90;;
25687;SDS011;17407;51.120;3.702;2023-04-19T05:05:11;41.28;;;26.52;;
25687;SDS011;17407;51.120;3.702;2023-04-19T05:08:34;39.28;;;27.77;;
25687;SDS011;17407;51.120;3.702;2023-04-19T12:05:06;16.23;;;11.90;;
25687;SDS011;17407;51.120;3.702;2023-04-19T12:08:29;17.08;;;10.80;;
25687;SDS011;17407;51.120;3.702;2023-04-19T12:11:47;12.30;;;10.10;;
25687;SDS011;17407;51.120;3.702;2023-04-19T12:15:10;15.02;;;9.35;;
25687;SDS011;17407;51.120;3.702;2023-04-19T12:22:08;11.85;;;8.70;;
25687;SDS011;17407;51.120;3.702;2023-04-19T12:25:29;11.48;;;9.00;;
25687;SDS011;17407;51.120;3.702;2023-04-19T12:28:52;13.77;;;9.60;;
25687;SDS011;17407;51.120;3.702;2023-04-19T12:32:10;19.48;;;10.45;;
25687;SDS011;17407;51.120;3.702;2023-04-19T12:35:34;10.73;;;8.25;;
25687;SDS011;17407;51.120;3.702;2023-04-19T12:38:57;13.25;;;8.65;;
25687;SDS011;17407;51.120;3.702;2023-04-19T12:42:15;13.38;;;7.80;;
25687;SDS011;17407;51.120;3.702;2023-04-19T12:45:38;11.55;;;7.90;;
25687;SDS011;17407;51.120;3.702;2023-04-19T12:49:02;13.23;;;7.40;;
25687;SDS011;17407;51.120;3.702;2023-04-19T12:52:25;12.48;;;7.78;;
25687;SDS011;17407;51.120;3.702;2023-04-19T12:55:48;12.98;;;7.30;;
25687;SDS011;17407;51.120;3.702;2023-04-19T12:59:06;8.98;;;6.53;;
25687;SDS011;17407;51.120;3.702;2023-04-19T13:02:30;9.40;;;6.10;;
25687;SDS011;17407;51.120;3.702;2023-04-19T13:05:48;12.88;;;7.93;;
25687;SDS011;17407;51.120;3.702;2023-04-19T13:09:11;12.95;;;7.75;;
25687;SDS011;17407;51.120;3.702;2023-04-19T13:12:35;9.32;;;7.13;;
25687;SDS011;17407;51.120;3.702;2023-04-19T13:15:58;17.45;;;8.82;;
25687;SDS011;17407;51.120;3.702;2023-04-19T13:19:21;7.88;;;6.60;;
25687;SDS011;17407;51.120;3.702;2023-04-19T13:22:45;11.43;;;6.88;;
25687;SDS011;17407;51.120;3.702;2023-04-19T13:26:08;20.42;;;7.10;;
25687;SDS011;17407;51.120;3.702;2023-04-19T13:29:31;12.18;;;7.10;;
25687;SDS011;17407;51.120;3.702;2023-04-19T13:32:55;11.25;;;6.78;;
25687;SDS011;17407;51.120;3.702;2023-04-19T13:36:18;15.73;;;6.90;;
25687;SDS011;17407;51.120;3.702;2023-04-19T13:39:36;12.73;;;6.57;;
25687;SDS011;17407;51.120;3.702;2023-04-19T13:43:00;12.68;;;6.03;;
25687;SDS011;17407;51.120;3.702;2023-04-19T17:52:48;13.65;;;7.30;;
25687;SDS011;17407;51.120;3.702;2023-04-19T17:56:10;15.90;;;8.52;;
25687;SDS011;17407;51.120;3.702;2023-04-19T17:59:34;9.75;;;6.85;;
25687;SDS011;17407;51.120;3.702;2023-04-19T18:02:57;5.75;;;4.50;;
25687;SDS011;17407;51.120;3.702;2023-04-19T18:06:15;6.70;;;3.80;;
25687;SDS011;17407;51.120;3.702;2023-04-19T18:09:38;7.35;;;4.28;;
25687;SDS011;17407;51.120;3.702;2023-04-19T18:12:57;4.32;;;3.85;;
25687;SDS011;17407;51.120;3.702;2023-04-19T18:16:20;5.05;;;3.92;;
25687;SDS011;17407;51.120;3.702;2023-04-19T18:49:04;6.13;;;4.10;;
25687;SDS011;17407;51.120;3.702;2023-04-19T18:52:34;5.47;;;4.20;;
25687;SDS011;17407;51.120;3.702;2023-04-19T18:55:56;12.75;;;4.03;;
25687;SDS011;17407;51.120;3.702;2023-04-19T18:59:20;7.75;;;4.55;;
25687;SDS011;17407;51.120;3.702;2023-04-19T19:02:43;11.63;;;6.32;;
25687;SDS011;17407;51.120;3.702;2023-04-19T19:06:06;9.43;;;6.18;;
25687;SDS011;17407;51.120;3.702;2023-04-19T19:09:24;8.25;;;4.25;;
25687;SDS011;17407;51.120;3.702;2023-04-19T19:12:47;10.82;;;4.80;;
25687;SDS011;17407;51.120;3.702;2023-04-19T19:16:06;7.57;;;4.22;;
25687;SDS011;17407;51.120;3.702;2023-04-19T19:19:29;8.60;;;4.82;;
